sensor_id;sensor_type;location;lat;lon;timestamp;pressure;altitude;pressure_sealevel;temperature;humidity
25232;BME280;13176;51.140;6.290;2023-02-12T00:01:34;103095.13;;;11.03;85.71
25232;BME280;13176;51.140;6.290;2023-02-12T00:04:00;103109.13;;;11.05;85.88
25232;BME280;13176;51.140;6.290;2023-02-12T00:06:27;103120.59;;;11.12;85.73
25232;BME280;13176;51.140;6.290;2023-02-12T00:08:54;103111.78;;;11.07;85.78
25232;BME280;13176;51.140;6.290;2023-02-12T00:11:27;103041.34;;;10.73;85.35
25232;BME280;13176;51.140;6.290;2023-02-12T00:13:54;103003.03;;;10.36;85.19
25232;BME280;13176;51.140;6.290;2023-02-12T00:16:24;102916.69;;;9.94;85.48
25232;BME280;13176;51.140;6.290;2023-02-12T00:18:52;103039.28;;;10.60;85.38
25232;BME280;13176;51.140;6.290;2023-02-12T00:21:20;103129.09;;;11.03;85.45
25232;BME280;13176;51.140;6.290;2023-02-12T00:23:47;103043.75;;;10.65;85.26
25232;BME280;13176;51.140;6.290;2023-02-12T00:26:16;103129.41;;;11.15;85.58
25232;BME280;13176;51.140;6.290;2023-02-12T00:28:43;102996.84;;;10.33;84.94
25232;BME280;13176;51.140;6.290;2023-02-12T00:31:13;103125.03;;;11.16;85.17
25232;BME280;13176;51.140;6.290;2023-02-12T00:33:40;103117.03;;;11.08;85.15
25232;BME280;13176;51.140;6.290;2023-02-12T00:36:08;103061.31;;;10.72;85.28
25232;BME280;13176;51.140;6.290;2023-02-12T00:38:37;103073.53;;;10.73;85.44
25232;BME280;13176;51.140;6.290;2023-02-12T00:41:04;103115.91;;;10.97;85.23
25232;BME280;13176;51.140;6.290;2023-02-12T00:43:30;102983.69;;;10.28;85.15
25232;BME280;13176;51.140;6.290;2023-02-12T00:45:57;103111.56;;;10.98;84.99
25232;BME280;13176;51.140;6.290;2023-02-12T00:48:24;103005.53;;;10.32;85.23
25232;BME280;13176;51.140;6.290;2023-02-12T00:50:50;103064.78;;;10.71;84.91
25232;BME280;13176;51.140;6.290;2023-02-12T00:53:17;103093.97;;;10.89;84.89
25232;BME280;13176;51.140;6.290;2023-02-12T00:55:43;103099.28;;;10.94;84.58
25232;BME280;13176;51.140;6.290;2023-02-12T00:58:09;102914.66;;;9.81;84.58
25232;BME280;13176;51.140;6.290;2023-02-12T01:00:36;102990.50;;;10.23;84.75
25232;BME280;13176;51.140;6.290;2023-02-12T01:03:03;103106.34;;;10.98;84.64
25232;BME280;13176;51.140;6.290;2023-02-12T01:05:30;102945.63;;;10.01;84.69
25232;BME280;13176;51.140;6.290;2023-02-12T01:07:57;102942.78;;;9.94;85.26
25232;BME280;13176;51.140;6.290;2023-02-12T01:10:23;103050.38;;;10.51;85.20
25232;BME280;13176;51.140;6.290;2023-02-12T01:12:50;102923.31;;;9.80;85.27
25232;BME280;13176;51.140;6.290;2023-02-12T01:15:17;103103.34;;;10.81;85.31
25232;BME280;13176;51.140;6.290;2023-02-12T01:17:44;103099.25;;;10.92;85.41
25232;BME280;13176;51.140;6.290;2023-02-12T01:20:14;103117.72;;;11.01;85.22
25232;BME280;13176;51.140;6.290;2023-02-12T01:22:43;103099.19;;;10.91;85.39
25232;BME280;13176;51.140;6.290;2023-02-12T01:25:10;103116.78;;;10.98;85.17
25232;BME280;13176;51.140;6.290;2023-02-12T01:27:37;103077.81;;;10.70;85.09
25232;BME280;13176;51.140;6.290;2023-02-12T01:30:05;103027.66;;;10.47;84.83
25232;BME280;13176;51.140;6.290;2023-02-12T01:32:34;103024.91;;;10.41;85.00
25232;BME280;13176;51.140;6.290;2023-02-12T01:35:01;103088.81;;;10.92;85.14
25232;BME280;13176;51.140;6.290;2023-02-12T01:37:27;103098.25;;;10.87;85.05
25232;BME280;13176;51.140;6.290;2023-02-12T01:39:53;102982.50;;;10.16;84.71
25232;BME280;13176;51.140;6.290;2023-02-12T01:42:20;103089.91;;;10.66;84.72
25232;BME280;13176;51.140;6.290;2023-02-12T01:47:43;103036.50;;;10.52;84.92
25232;BME280;13176;51.140;6.290;2023-02-12T01:50:12;102877.84;;;9.69;84.88
25232;BME280;13176;51.140;6.290;2023-02-12T01:52:47;103012.63;;;10.37;84.39
25232;BME280;13176;51.140;6.290;2023-02-12T01:55:33;103055.94;;;10.66;84.62
25232;BME280;13176;51.140;6.290;2023-02-12T01:59:11;103098.25;;;10.87;84.85
25232;BME280;13176;51.140;6.290;2023-02-12T02:02:31;103105.19;;;10.85;85.06
25232;BME280;13176;51.140;6.290;2023-02-12T02:09:01;103100.81;;;10.86;84.87
25232;BME280;13176;51.140;6.290;2023-02-12T02:12:36;103092.13;;;10.87;84.73
25232;BME280;13176;51.140;6.290;2023-02-12T02:16:41;103093.84;;;10.85;84.84
25232;BME280;13176;51.140;6.290;2023-02-12T02:30:24;103082.38;;;10.78;84.92
25232;BME280;13176;51.140;6.290;2023-02-12T02:38:30;102974.50;;;10.09;84.94
25232;BME280;13176;51.140;6.290;2023-02-12T02:41:22;102986.00;;;10.17;84.90
25232;BME280;13176;51.140;6.290;2023-02-12T02:43:53;103026.44;;;10.33;85.11
25232;BME280;13176;51.140;6.290;2023-02-12T02:46:30;102993.00;;;10.18;85.04
25232;BME280;13176;51.140;6.290;2023-02-12T02:49:01;103084.66;;;10.65;84.93
25232;BME280;13176;51.140;6.290;2023-02-12T02:51:32;102986.63;;;10.07;85.25
25232;BME280;13176;51.140;6.290;2023-02-12T02:54:12;103092.81;;;10.78;85.13
25232;BME280;13176;51.140;6.290;2023-02-12T02:56:41;103087.59;;;10.78;85.25
25232;BME280;13176;51.140;6.290;2023-02-12T02:59:18;103093.72;;;10.80;85.12
25232;BME280;13176;51.140;6.290;2023-02-12T03:01:55;102963.91;;;10.03;84.82
25232;BME280;13176;51.140;6.290;2023-02-12T03:04:36;103001.78;;;10.22;85.19
25232;BME280;13176;51.140;6.290;2023-02-12T03:07:11;103091.06;;;10.77;85.30
25232;BME280;13176;51.140;6.290;2023-02-12T03:09:42;102948.84;;;9.93;85.22
25232;BME280;13176;51.140;6.290;2023-02-12T03:12:17;103032.50;;;10.32;84.86
25232;BME280;13176;51.140;6.290;2023-02-12T03:14:53;102985.97;;;10.15;84.92
25232;BME280;13176;51.140;6.290;2023-02-12T03:17:30;102940.78;;;9.84;84.90
25232;BME280;13176;51.140;6.290;2023-02-12T03:20:03;102983.00;;;10.02;84.95
25232;BME280;13176;51.140;6.290;2023-02-12T03:22:33;103068.00;;;10.61;84.90
25232;BME280;13176;51.140;6.290;2023-02-12T03:26:07;103078.75;;;10.73;84.81
25232;BME280;13176;51.140;6.290;2023-02-12T03:28:18;102996.44;;;10.17;84.91
25232;BME280;13176;51.140;6.290;2023-02-12T03:33:38;103080.44;;;10.70;85.01
25232;BME280;13176;51.140;6.290;2023-02-12T03:36:17;102944.38;;;9.89;85.08
25232;BME280;13176;51.140;6.290;2023-02-12T03:38:53;102963.63;;;9.94;85.27
25232;BME280;13176;51.140;6.290;2023-02-12T03:41:26;102972.56;;;10.02;84.99
25232;BME280;13176;51.140;6.290;2023-02-12T03:44:05;102969.22;;;10.06;85.35
25232;BME280;13176;51.140;6.290;2023-02-12T03:46:41;102990.06;;;10.06;85.03
25232;BME280;13176;51.140;6.290;2023-02-12T03:49:21;102993.59;;;10.08;85.23
25232;BME280;13176;51.140;6.290;2023-02-12T03:51:49;102976.03;;;10.01;85.20
25232;BME280;13176;51.140;6.290;2023-02-12T03:54:17;102992.59;;;10.03;84.95
25232;BME280;13176;51.140;6.290;2023-02-12T03:56:50;102999.91;;;10.17;85.35
25232;BME280;13176;51.140;6.290;2023-02-12T03:59:19;102971.75;;;10.04;85.16
25232;BME280;13176;51.140;6.290;2023-02-12T04:01:47;103082.19;;;10.71;84.90
25232;BME280;13176;51.140;6.290;2023-02-12T04:04:15;103041.56;;;10.46;85.15
25232;BME280;13176;51.140;6.290;2023-02-12T04:06:42;102952.75;;;9.76;85.05
25232;BME280;13176;51.140;6.290;2023-02-12T04:09:10;102987.47;;;10.06;85.11
25232;BME280;13176;51.140;6.290;2023-02-12T04:14:36;103099.56;;;10.70;85.07
25232;BME280;13176;51.140;6.290;2023-02-12T04:17:21;103101.34;;;10.71;84.87
25232;BME280;13176;51.140;6.290;2023-02-12T04:20:10;103098.72;;;10.71;84.95
25232;BME280;13176;51.140;6.290;2023-02-12T04:25:32;103011.19;;;10.15;84.87
25232;BME280;13176;51.140;6.290;2023-02-12T04:31:21;103106.47;;;10.68;85.01
25232;BME280;13176;51.140;6.290;2023-02-12T04:36:48;103029.47;;;10.16;84.72
25232;BME280;13176;51.140;6.290;2023-02-12T04:39:21;103045.19;;;10.19;84.86
25232;BME280;13176;51.140;6.290;2023-02-12T04:41:48;102996.69;;;9.95;84.48
25232;BME280;13176;51.140;6.290;2023-02-12T04:44:22;103034.53;;;10.10;84.75
25232;BME280;13176;51.140;6.290;2023-02-12T04:46:50;102986.03;;;9.86;84.80
25232;BME280;13176;51.140;6.290;2023-02-12T04:49:19;103020.44;;;10.04;84.97
25232;BME280;13176;51.140;6.290;2023-02-12T04:51:46;103017.56;;;9.95;84.82
25232;BME280;13176;51.140;6.290;2023-02-12T04:54:14;103102.88;;;10.63;84.95
25232;BME280;13176;51.140;6.290;2023-02-12T04:56:41;103123.97;;;10.71;84.44
25232;BME280;13176;51.140;6.290;2023-02-12T04:59:08;103054.97;;;10.27;84.40
25232;BME280;13176;51.140;6.290;2023-02-12T05:01:36;103023.22;;;10.10;84.28
25232;BME280;13176;51.140;6.290;2023-02-12T05:04:04;103006.56;;;10.05;84.50
25232;BME280;13176;51.140;6.290;2023-02-12T05:06:34;102992.41;;;9.97;84.35
25232;BME280;13176;51.140;6.290;2023-02-12T05:09:01;103025.91;;;10.13;84.43
25232;BME280;13176;51.140;6.290;2023-02-12T05:11:27;103021.09;;;9.97;84.03
25232;BME280;13176;51.140;6.290;2023-02-12T05:13:54;103007.13;;;9.95;84.36
25232;BME280;13176;51.140;6.290;2023-02-12T05:16:21;102980.84;;;9.87;84.36
25232;BME280;13176;51.140;6.290;2023-02-12T05:18:47;103086.59;;;10.39;84.31
25232;BME280;13176;51.140;6.290;2023-02-12T05:21:14;103008.06;;;9.97;84.16
25232;BME280;13176;51.140;6.290;2023-02-12T05:23:41;103081.47;;;10.42;83.99
25232;BME280;13176;51.140;6.290;2023-02-12T05:26:11;103127.22;;;10.62;84.33
25232;BME280;13176;51.140;6.290;2023-02-12T05:28:38;103070.56;;;10.24;84.48
25232;BME280;13176;51.140;6.290;2023-02-12T05:31:07;103012.06;;;9.84;84.63
25232;BME280;13176;51.140;6.290;2023-02-12T05:33:34;103122.00;;;10.62;84.51
25232;BME280;13176;51.140;6.290;2023-02-12T05:36:04;103132.44;;;10.62;84.50
25232;BME280;13176;51.140;6.290;2023-02-12T05:38:31;103039.78;;;10.12;84.49
25232;BME280;13176;51.140;6.290;2023-02-12T05:41:04;103031.88;;;10.09;84.30
25232;BME280;13176;51.140;6.290;2023-02-12T05:43:31;103021.09;;;9.97;84.24
25232;BME280;13176;51.140;6.290;2023-02-12T05:45:59;103054.53;;;10.10;84.44
25232;BME280;13176;51.140;6.290;2023-02-12T05:48:27;103088.06;;;10.28;84.41
25232;BME280;13176;51.140;6.290;2023-02-12T05:51:00;103050.91;;;10.05;84.23
25232;BME280;13176;51.140;6.290;2023-02-12T05:53:27;103043.84;;;10.01;84.29
25232;BME280;13176;51.140;6.290;2023-02-12T05:55:54;103042.88;;;9.99;84.34
25232;BME280;13176;51.140;6.290;2023-02-12T05:58:21;103112.53;;;10.33;84.65
25232;BME280;13176;51.140;6.290;2023-02-12T06:00:47;103003.22;;;9.78;84.38
25232;BME280;13176;51.140;6.290;2023-02-12T06:03:13;103066.47;;;10.02;84.81
25232;BME280;13176;51.140;6.290;2023-02-12T06:05:40;103050.63;;;9.96;85.05
25232;BME280;13176;51.140;6.290;2023-02-12T06:08:06;103053.28;;;9.97;84.57
25232;BME280;13176;51.140;6.290;2023-02-12T06:10:32;103021.56;;;9.82;84.35
25232;BME280;13176;51.140;6.290;2023-02-12T06:12:59;103070.00;;;10.04;84.32
25232;BME280;13176;51.140;6.290;2023-02-12T06:15:25;103123.22;;;10.42;84.65
25232;BME280;13176;51.140;6.290;2023-02-12T06:17:52;103006.75;;;9.80;84.50
25232;BME280;13176;51.140;6.290;2023-02-12T06:20:18;103038.16;;;9.86;84.41
25232;BME280;13176;51.140;6.290;2023-02-12T06:22:44;103056.72;;;9.96;84.33
25232;BME280;13176;51.140;6.290;2023-02-12T06:25:11;103077.16;;;10.11;84.20
25232;BME280;13176;51.140;6.290;2023-02-12T06:27:37;103064.69;;;10.01;84.54
25232;BME280;13176;51.140;6.290;2023-02-12T06:30:04;103041.78;;;9.91;84.55
25232;BME280;13176;51.140;6.290;2023-02-12T06:32:30;103070.94;;;10.07;84.59
25232;BME280;13176;51.140;6.290;2023-02-12T06:34:57;103055.91;;;9.99;84.57
25232;BME280;13176;51.140;6.290;2023-02-12T06:37:24;103097.56;;;10.26;83.91
25232;BME280;13176;51.140;6.290;2023-02-12T06:39:51;103080.78;;;10.16;84.32
25232;BME280;13176;51.140;6.290;2023-02-12T06:42:17;103055.84;;;9.96;84.12
25232;BME280;13176;51.140;6.290;2023-02-12T06:44:43;103070.81;;;10.01;84.31
25232;BME280;13176;51.140;6.290;2023-02-12T06:47:11;103092.97;;;10.17;84.46
25232;BME280;13176;51.140;6.290;2023-02-12T06:49:38;103113.19;;;10.25;84.43
25232;BME280;13176;51.140;6.290;2023-02-12T06:52:04;103045.97;;;9.84;84.59
25232;BME280;13176;51.140;6.290;2023-02-12T06:54:31;103037.19;;;9.81;84.35
25232;BME280;13176;51.140;6.290;2023-02-12T06:56:57;103090.13;;;10.09;84.48
25232;BME280;13176;51.140;6.290;2023-02-12T06:59:23;103068.94;;;9.97;84.35
25232;BME280;13176;51.140;6.290;2023-02-12T07:01:50;103068.03;;;9.97;84.29
25232;BME280;13176;51.140;6.290;2023-02-12T07:04:16;103043.16;;;9.77;84.54
25232;BME280;13176;51.140;6.290;2023-02-12T07:06:43;103071.78;;;10.05;84.53
25232;BME280;13176;51.140;6.290;2023-02-12T07:09:09;103041.63;;;9.85;84.33
25232;BME280;13176;51.140;6.290;2023-02-12T07:11:36;103124.59;;;10.28;84.30
25232;BME280;13176;51.140;6.290;2023-02-12T07:14:04;103048.59;;;9.86;84.12
25232;BME280;13176;51.140;6.290;2023-02-12T07:16:31;103027.44;;;9.74;84.05
25232;BME280;13176;51.140;6.290;2023-02-12T07:18:58;103126.25;;;10.26;84.17
25232;BME280;13176;51.140;6.290;2023-02-12T07:21:25;102976.75;;;9.32;84.09
25232;BME280;13176;51.140;6.290;2023-02-12T07:23:52;103175.81;;;10.57;84.39
25232;BME280;13176;51.140;6.290;2023-02-12T07:26:19;103091.69;;;10.01;84.10
25232;BME280;13176;51.140;6.290;2023-02-12T07:28:47;103192.38;;;10.58;84.60
25232;BME280;13176;51.140;6.290;2023-02-12T07:31:16;103085.81;;;10.10;84.21
25232;BME280;13176;51.140;6.290;2023-02-12T07:33:43;103182.81;;;10.58;84.30
25232;BME280;13176;51.140;6.290;2023-02-12T07:36:12;103140.41;;;10.34;84.23
25232;BME280;13176;51.140;6.290;2023-02-12T07:38:39;103071.56;;;9.99;84.38
25232;BME280;13176;51.140;6.290;2023-02-12T07:41:13;103155.59;;;10.49;84.23
25232;BME280;13176;51.140;6.290;2023-02-12T07:43:41;103105.88;;;10.12;83.98
25232;BME280;13176;51.140;6.290;2023-02-12T07:46:11;103084.06;;;10.09;84.11
25232;BME280;13176;51.140;6.290;2023-02-12T07:48:38;103084.06;;;10.09;84.06
25232;BME280;13176;51.140;6.290;2023-02-12T07:51:07;103184.06;;;10.72;84.44
25232;BME280;13176;51.140;6.290;2023-02-12T07:53:34;103098.28;;;10.20;84.27
25232;BME280;13176;51.140;6.290;2023-02-12T07:56:09;103022.31;;;9.77;84.58
25232;BME280;13176;51.140;6.290;2023-02-12T07:58:37;103179.06;;;10.81;84.21
25232;BME280;13176;51.140;6.290;2023-02-12T08:01:31;103176.22;;;10.72;84.07
25232;BME280;13176;51.140;6.290;2023-02-12T08:04:00;103191.16;;;10.78;84.26
25232;BME280;13176;51.140;6.290;2023-02-12T08:06:29;103062.81;;;9.97;84.45
25232;BME280;13176;51.140;6.290;2023-02-12T08:08:58;103146.03;;;10.49;84.72
25232;BME280;13176;51.140;6.290;2023-02-12T08:11:27;103149.59;;;10.51;84.48
25232;BME280;13176;51.140;6.290;2023-02-12T08:13:55;103190.28;;;10.77;84.30
25232;BME280;13176;51.140;6.290;2023-02-12T08:16:24;103196.94;;;10.99;84.07
25232;BME280;13176;51.140;6.290;2023-02-12T08:18:51;103091.00;;;10.42;84.17
25232;BME280;13176;51.140;6.290;2023-02-12T08:21:21;103124.75;;;10.67;83.82
25232;BME280;13176;51.140;6.290;2023-02-12T08:23:48;103171.88;;;11.07;83.85
25232;BME280;13176;51.140;6.290;2023-02-12T08:26:23;103143.59;;;10.89;83.40
25232;BME280;13176;51.140;6.290;2023-02-12T08:28:54;103202.03;;;11.28;83.50
25232;BME280;13176;51.140;6.290;2023-02-12T08:31:26;103131.28;;;10.85;83.08
25232;BME280;13176;51.140;6.290;2023-02-12T08:33:54;103161.91;;;10.91;83.64
25232;BME280;13176;51.140;6.290;2023-02-12T08:36:26;103207.03;;;11.19;84.01
25232;BME280;13176;51.140;6.290;2023-02-12T08:38:59;103188.31;;;11.03;84.02
25232;BME280;13176;51.140;6.290;2023-02-12T08:41:29;103203.50;;;11.17;83.86
25232;BME280;13176;51.140;6.290;2023-02-12T08:43:57;103131.84;;;10.72;83.93
25232;BME280;13176;51.140;6.290;2023-02-12T08:46:29;103217.47;;;11.19;84.17
25232;BME280;13176;51.140;6.290;2023-02-12T08:48:59;103214.22;;;11.29;84.12
25232;BME280;13176;51.140;6.290;2023-02-12T08:51:28;103192.28;;;11.21;83.58
25232;BME280;13176;51.140;6.290;2023-02-12T08:53:58;103217.25;;;11.45;83.59
25232;BME280;13176;51.140;6.290;2023-02-12T08:56:26;103223.59;;;11.55;82.89
25232;BME280;13176;51.140;6.290;2023-02-12T08:58:53;103119.16;;;10.87;83.07
25232;BME280;13176;51.140;6.290;2023-02-12T09:01:22;103227.06;;;11.54;82.80
25232;BME280;13176;51.140;6.290;2023-02-12T09:03:50;103227.22;;;11.60;83.00
25232;BME280;13176;51.140;6.290;2023-02-12T09:06:18;103087.50;;;10.75;83.06
25232;BME280;13176;51.140;6.290;2023-02-12T09:08:45;103096.28;;;10.77;82.83
25232;BME280;13176;51.140;6.290;2023-02-12T09:11:14;103142.31;;;11.09;82.53
25232;BME280;13176;51.140;6.290;2023-02-12T09:13:45;103167.13;;;11.26;83.22
25232;BME280;13176;51.140;6.290;2023-02-12T09:16:13;103231.38;;;11.53;82.80
25232;BME280;13176;51.140;6.290;2023-02-12T09:19:10;103228.72;;;11.52;82.66
25232;BME280;13176;51.140;6.290;2023-02-12T09:21:37;103068.94;;;10.63;82.85
25232;BME280;13176;51.140;6.290;2023-02-12T09:24:03;103151.31;;;11.20;82.43
25232;BME280;13176;51.140;6.290;2023-02-12T09:26:30;103183.59;;;11.59;81.90
25232;BME280;13176;51.140;6.290;2023-02-12T09:29:02;103094.28;;;11.03;81.44
25232;BME280;13176;51.140;6.290;2023-02-12T09:31:30;103082.59;;;10.87;81.67
25232;BME280;13176;51.140;6.290;2023-02-12T09:34:02;103231.16;;;11.80;81.76
25232;BME280;13176;51.140;6.290;2023-02-12T09:36:30;103086.75;;;11.16;81.33
25232;BME280;13176;51.140;6.290;2023-02-12T09:38:57;103210.34;;;11.86;81.54
25232;BME280;13176;51.140;6.290;2023-02-12T09:47:41;103171.13;;;11.87;80.88
25232;BME280;13176;51.140;6.290;2023-02-12T09:52:55;103164.75;;;11.75;80.77
25232;BME280;13176;51.140;6.290;2023-02-12T09:55:30;103180.66;;;11.84;80.47
25232;BME280;13176;51.140;6.290;2023-02-12T09:57:59;103110.16;;;11.50;80.29
25232;BME280;13176;51.140;6.290;2023-02-12T10:00:28;103201.09;;;12.01;80.49
25232;BME280;13176;51.140;6.290;2023-02-12T10:03:01;103212.75;;;12.17;80.15
25232;BME280;13176;51.140;6.290;2023-02-12T10:05:34;103170.63;;;12.05;79.87
25232;BME280;13176;51.140;6.290;2023-02-12T10:13:21;103227.47;;;12.54;77.93
25232;BME280;13176;51.140;6.290;2023-02-12T10:16:13;103202.59;;;12.32;77.90
25232;BME280;13176;51.140;6.290;2023-02-12T10:27:16;103203.00;;;12.52;77.30
25232;BME280;13176;51.140;6.290;2023-02-12T10:29:46;103220.66;;;12.62;76.73
25232;BME280;13176;51.140;6.290;2023-02-12T10:32:33;103243.56;;;12.72;76.86
25232;BME280;13176;51.140;6.290;2023-02-12T10:35:01;103211.09;;;12.64;76.18
25232;BME280;13176;51.140;6.290;2023-02-12T10:40:30;103241.06;;;12.80;75.81
25232;BME280;13176;51.140;6.290;2023-02-12T10:43:00;103218.09;;;12.65;75.39
25232;BME280;13176;51.140;6.290;2023-02-12T10:45:32;103236.81;;;12.86;74.54
25232;BME280;13176;51.140;6.290;2023-02-12T10:53:24;103187.03;;;12.39;74.86
25232;BME280;13176;51.140;6.290;2023-02-12T10:56:23;103222.34;;;12.60;74.51
25232;BME280;13176;51.140;6.290;2023-02-12T10:58:57;103238.19;;;12.66;74.50
25232;BME280;13176;51.140;6.290;2023-02-12T11:03:52;103162.53;;;12.36;74.38
25232;BME280;13176;51.140;6.290;2023-02-12T11:06:26;103241.84;;;12.74;74.54
25232;BME280;13176;51.140;6.290;2023-02-12T11:08:56;103192.41;;;12.47;74.27
25232;BME280;13176;51.140;6.290;2023-02-12T11:11:30;103159.59;;;12.21;74.16
25232;BME280;13176;51.140;6.290;2023-02-12T11:14:09;103222.47;;;12.66;74.29
25232;BME280;13176;51.140;6.290;2023-02-12T11:16:59;103196.66;;;12.42;74.14
25232;BME280;13176;51.140;6.290;2023-02-12T11:19:30;103212.66;;;12.55;73.85
25232;BME280;13176;51.140;6.290;2023-02-12T11:22:11;103091.84;;;11.90;73.55
25232;BME280;13176;51.140;6.290;2023-02-12T11:24:45;103121.94;;;12.13;73.39
25232;BME280;13176;51.140;6.290;2023-02-12T11:29:43;103198.25;;;12.79;73.41
25232;BME280;13176;51.140;6.290;2023-02-12T11:32:19;103207.88;;;12.80;73.42
25232;BME280;13176;51.140;6.290;2023-02-12T11:37:39;103138.59;;;12.63;73.21
25232;BME280;13176;51.140;6.290;2023-02-12T11:40:15;103000.34;;;11.94;73.06
25232;BME280;13176;51.140;6.290;2023-02-12T11:42:47;103089.47;;;12.50;73.03
25232;BME280;13176;51.140;6.290;2023-02-12T11:45:17;103135.34;;;12.79;72.97
25232;BME280;13176;51.140;6.290;2023-02-12T11:47:47;103059.44;;;12.31;72.68
25232;BME280;13176;51.140;6.290;2023-02-12T11:50:24;103037.66;;;12.32;73.02
25232;BME280;13176;51.140;6.290;2023-02-12T11:52:55;103061.41;;;12.44;73.50
25232;BME280;13176;51.140;6.290;2023-02-12T11:55:28;103012.13;;;12.19;73.28
25232;BME280;13176;51.140;6.290;2023-02-12T11:58:15;103138.13;;;12.88;73.09
25232;BME280;13176;51.140;6.290;2023-02-12T12:00:51;103196.31;;;13.18;72.89
25232;BME280;13176;51.140;6.290;2023-02-12T12:06:24;103155.09;;;13.08;72.32
25232;BME280;13176;51.140;6.290;2023-02-12T12:09:03;103180.88;;;13.36;72.50
25232;BME280;13176;51.140;6.290;2023-02-12T12:11:52;103176.63;;;13.44;72.15
25232;BME280;13176;51.140;6.290;2023-02-12T12:14:30;103163.28;;;13.28;72.17
25232;BME280;13176;51.140;6.290;2023-02-12T12:17:04;103095.44;;;12.92;72.29
25232;BME280;13176;51.140;6.290;2023-02-12T12:19:57;103171.44;;;13.47;71.97
25232;BME280;13176;51.140;6.290;2023-02-12T12:22:49;103163.63;;;13.52;71.75
25232;BME280;13176;51.140;6.290;2023-02-12T12:25:25;103124.00;;;13.32;71.86
25232;BME280;13176;51.140;6.290;2023-02-12T12:28:17;103147.91;;;13.55;71.83
25232;BME280;13176;51.140;6.290;2023-02-12T12:31:18;103124.97;;;13.40;71.30
25232;BME280;13176;51.140;6.290;2023-02-12T12:36:35;103133.03;;;13.55;71.13
25232;BME280;13176;51.140;6.290;2023-02-12T12:39:16;103045.91;;;13.12;70.72
25232;BME280;13176;51.140;6.290;2023-02-12T12:50:41;103069.94;;;13.43;69.50
25232;BME280;13176;51.140;6.290;2023-02-12T13:04:50;103131.69;;;13.85;67.04
25232;BME280;13176;51.140;6.290;2023-02-12T13:13:16;103105.41;;;13.84;65.84
25232;BME280;13176;51.140;6.290;2023-02-12T13:23:52;102966.38;;;13.11;65.01
25232;BME280;13176;51.140;6.290;2023-02-12T13:26:36;103089.59;;;13.75;65.46
25232;BME280;13176;51.140;6.290;2023-02-12T13:29:17;103099.31;;;13.83;65.37
25232;BME280;13176;51.140;6.290;2023-02-12T13:31:48;103042.13;;;13.57;65.68
25232;BME280;13176;51.140;6.290;2023-02-12T13:34:17;103063.25;;;13.69;65.85
25232;BME280;13176;51.140;6.290;2023-02-12T13:36:45;102994.50;;;13.24;66.05
25232;BME280;13176;51.140;6.290;2023-02-12T13:39:15;103086.22;;;13.88;65.89
25232;BME280;13176;51.140;6.290;2023-02-12T13:41:53;102978.69;;;13.18;66.34
25232;BME280;13176;51.140;6.290;2023-02-12T13:44:32;102964.69;;;13.16;65.61
25232;BME280;13176;51.140;6.290;2023-02-12T13:49:52;103085.28;;;13.81;65.46
25232;BME280;13176;51.140;6.290;2023-02-12T13:55:10;103091.44;;;13.85;65.72
25232;BME280;13176;51.140;6.290;2023-02-12T13:57:44;102947.06;;;13.03;65.65
25232;BME280;13176;51.140;6.290;2023-02-12T14:03:15;103044.88;;;13.67;66.18
25232;BME280;13176;51.140;6.290;2023-02-12T14:05:41;103008.78;;;13.47;65.72
25232;BME280;13176;51.140;6.290;2023-02-12T14:08:33;103070.44;;;13.85;65.37
25232;BME280;13176;51.140;6.290;2023-02-12T14:11:11;103085.44;;;13.93;65.69
25232;BME280;13176;51.140;6.290;2023-02-12T14:13:54;102949.81;;;13.14;66.16
25232;BME280;13176;51.140;6.290;2023-02-12T14:24:53;103083.50;;;13.79;66.70
25232;BME280;13176;51.140;6.290;2023-02-12T14:30:29;103084.44;;;13.85;66.79
25232;BME280;13176;51.140;6.290;2023-02-12T14:33:08;102977.91;;;13.24;66.57
25232;BME280;13176;51.140;6.290;2023-02-12T14:35:41;103096.63;;;13.79;66.50
25232;BME280;13176;51.140;6.290;2023-02-12T14:40:41;103035.03;;;13.47;67.13
25232;BME280;13176;51.140;6.290;2023-02-12T14:43:44;103080.81;;;13.73;67.44
25232;BME280;13176;51.140;6.290;2023-02-12T14:48:58;103037.69;;;13.52;66.96
25232;BME280;13176;51.140;6.290;2023-02-12T14:51:44;102976.84;;;13.08;66.94
25232;BME280;13176;51.140;6.290;2023-02-12T14:54:42;103083.38;;;13.68;67.45
25232;BME280;13176;51.140;6.290;2023-02-12T14:59:48;102977.63;;;13.03;67.50
25232;BME280;13176;51.140;6.290;2023-02-12T15:02:28;103018.09;;;13.24;67.34
25232;BME280;13176;51.140;6.290;2023-02-12T15:05:00;103063.97;;;13.55;67.67
25232;BME280;13176;51.140;6.290;2023-02-12T15:07:42;102936.16;;;12.76;67.35
25232;BME280;13176;51.140;6.290;2023-02-12T15:10:22;103068.41;;;13.60;67.44
25232;BME280;13176;51.140;6.290;2023-02-12T15:13:03;102979.44;;;13.07;67.43
25232;BME280;13176;51.140;6.290;2023-02-12T15:15:37;102944.03;;;12.76;67.33
25232;BME280;13176;51.140;6.290;2023-02-12T15:18:23;103043.69;;;13.40;67.52
25232;BME280;13176;51.140;6.290;2023-02-12T15:21:08;102997.06;;;13.18;67.62
25232;BME280;13176;51.140;6.290;2023-02-12T15:23:41;102962.63;;;12.91;67.72
25232;BME280;13176;51.140;6.290;2023-02-12T15:26:17;103057.75;;;13.45;68.03
25232;BME280;13176;51.140;6.290;2023-02-12T15:28:49;103011.84;;;13.13;68.33
25232;BME280;13176;51.140;6.290;2023-02-12T15:31:26;103041.84;;;13.33;68.19
25232;BME280;13176;51.140;6.290;2023-02-12T15:33:56;102932.69;;;12.74;68.41
25232;BME280;13176;51.140;6.290;2023-02-12T15:36:29;102938.78;;;12.75;68.23
25232;BME280;13176;51.140;6.290;2023-02-12T15:39:00;102950.22;;;12.81;68.55
25232;BME280;13176;51.140;6.290;2023-02-12T15:44:48;102944.06;;;12.78;68.35
25232;BME280;13176;51.140;6.290;2023-02-12T15:47:12;103001.34;;;13.10;68.39